Time;durP1;ratioP1;P1;durP2;ratioP2;P2;SDS_P1;SDS_P2;PMS_P1;PMS_P2;Temp;Humidity;BMP_temperature;BMP_pressure;BME280_temperature;BME280_humidity;BME280_pressure;Samples;Min_cycle;Max_cycle;Signal;HPM_P1;HPM_P2
2021/07/17 00:00:44;;;;;;;11.73;4.65;;;19.10;91.40;;;;;;4934139;29;20106;-81
2021/07/17 00:03:10;;;;;;;10.93;4.65;;;19.10;91.40;;;;;;4934460;29;20113;-80
2021/07/17 00:05:35;;;;;;;9.55;4.35;;;19.10;91.40;;;;;;4951542;29;20019;-80
2021/07/17 00:08:01;;;;;;;16.98;4.55;;;19.10;91.40;;;;;;4952864;28;20030;-81
2021/07/17 00:10:43;;;;;;;16.50;4.47;;;19.10;91.40;;;;;;4955432;28;20538;-79
2021/07/17 00:13:09;;;;;;;15.32;4.80;;;19.10;91.40;;;;;;4939483;29;20027;-78
2021/07/17 00:15:35;;;;;;;12.38;4.38;;;19.10;91.40;;;;;;4939400;29;20015;-78
2021/07/17 00:18:01;;;;;;;14.80;4.25;;;19.00;91.40;;;;;;4940031;29;20355;-77
2021/07/17 00:20:27;;;;;;;9.80;4.15;;;19.10;91.40;;;;;;4939905;29;20030;-77
2021/07/17 00:22:53;;;;;;;11.68;4.20;;;19.00;91.40;;;;;;4939247;29;20345;-77
2021/07/17 00:25:21;;;;;;;11.70;4.75;;;19.00;91.50;;;;;;4939527;29;20020;-78
2021/07/17 00:27:47;;;;;;;11.43;4.65;;;19.00;91.60;;;;;;4939170;29;20049;-78
2021/07/17 00:30:14;;;;;;;11.05;4.30;;;19.00;91.50;;;;;;4939703;29;20416;-77
2021/07/17 00:32:40;;;;;;;11.45;4.50;;;19.00;91.50;;;;;;4938110;29;20019;-78
2021/07/17 00:35:07;;;;;;;11.10;4.75;;;19.00;91.50;;;;;;4955834;28;20075;-78
2021/07/17 00:37:33;;;;;;;13.40;5.15;;;19.00;91.50;;;;;;4938576;29;20023;-78
2021/07/17 00:40:00;;;;;;;13.25;4.75;;;19.00;91.60;;;;;;4939448;29;20126;-78
2021/07/17 00:42:26;;;;;;;10.30;4.82;;;19.00;91.60;;;;;;4939479;29;20065;-78
2021/07/17 00:44:51;;;;;;;14.45;4.90;;;19.00;91.60;;;;;;4938920;29;20425;-78
2021/07/17 00:47:17;;;;;;;12.77;4.50;;;18.90;91.60;;;;;;4939487;29;20023;-78
2021/07/17 00:49:43;;;;;;;11.82;4.00;;;18.90;91.60;;;;;;4938782;29;20038;-79
2021/07/17 00:52:09;;;;;;;14.13;4.95;;;18.90;91.60;;;;;;4939424;29;20021;-78
2021/07/17 00:54:36;;;;;;;14.15;4.63;;;18.90;91.60;;;;;;4938266;29;20074;-79
2021/07/17 00:57:03;;;;;;;19.60;4.95;;;18.90;91.70;;;;;;4939237;29;20508;-78
2021/07/17 00:59:31;;;;;;;13.50;5.38;;;18.90;91.70;;;;;;4956559;29;20026;-78
2021/07/17 01:02:00;;;;;;;11.35;4.47;;;18.90;91.70;;;;;;4938486;29;20026;-78
2021/07/17 01:04:28;;;;;;;11.05;4.20;;;18.90;91.70;;;;;;4956715;29;20031;-78
2021/07/17 01:06:56;;;;;;;11.85;4.70;;;18.80;91.70;;;;;;4938195;29;21107;-78
2021/07/17 01:09:21;;;;;;;8.63;4.10;;;18.80;91.80;;;;;;4938914;29;20071;-78
2021/07/17 01:11:47;;;;;;;11.75;4.90;;;18.80;91.80;;;;;;4938142;29;20046;-78
2021/07/17 01:14:13;;;;;;;10.30;4.30;;;18.80;91.80;;;;;;4956553;29;20015;-78
2021/07/17 01:16:39;;;;;;;9.95;4.63;;;18.80;91.80;;;;;;4938331;29;20120;-78
2021/07/17 01:19:09;;;;;;;10.95;4.40;;;18.70;91.80;;;;;;4938339;28;20102;-78
2021/07/17 01:21:35;;;;;;;10.13;4.30;;;18.70;91.80;;;;;;4938271;29;20027;-80
2021/07/17 01:24:01;;;;;;;8.60;4.00;;;18.70;91.80;;;;;;4956245;29;20126;-78
2021/07/17 01:26:27;;;;;;;9.30;4.15;;;18.70;91.80;;;;;;4956023;29;20033;-78
2021/07/17 01:28:52;;;;;;;7.07;3.85;;;18.70;91.80;;;;;;4955410;29;20110;-79
2021/07/17 01:31:19;;;;;;;8.88;4.22;;;18.70;91.80;;;;;;4955876;28;20444;-79
2021/07/17 01:33:45;;;;;;;12.23;4.35;;;18.70;91.80;;;;;;4955303;28;20048;-78
2021/07/17 01:36:10;;;;;;;14.63;4.60;;;18.60;91.80;;;;;;4938597;29;20019;-78
2021/07/17 01:38:36;;;;;;;11.32;4.35;;;18.60;91.80;;;;;;4955071;28;20391;-79
2021/07/17 01:41:02;;;;;;;10.77;4.63;;;18.60;91.90;;;;;;4955539;29;20580;-77
2021/07/17 01:43:28;;;;;;;10.25;4.78;;;18.60;91.90;;;;;;4955595;28;20027;-77
2021/07/17 01:45:58;;;;;;;12.52;5.18;;;18.60;91.90;;;;;;4937692;29;20026;-78
2021/07/17 01:48:24;;;;;;;13.93;4.30;;;18.60;91.90;;;;;;4938418;29;20452;-78
2021/07/17 01:50:50;;;;;;;9.15;4.18;;;18.60;91.80;;;;;;4937589;29;20027;-78
2021/07/17 01:53:15;;;;;;;12.52;4.13;;;18.60;91.80;;;;;;4938277;29;20110;-77
2021/07/17 01:55:42;;;;;;;10.82;4.55;;;18.60;91.80;;;;;;4954582;28;20077;-78
2021/07/17 01:58:09;;;;;;;8.23;3.70;;;18.60;91.80;;;;;;4955366;28;20106;-78
2021/07/17 02:00:35;;;;;;;11.48;4.78;;;18.60;91.90;;;;;;4955268;29;20111;-77
2021/07/17 02:03:00;;;;;;;12.80;5.00;;;18.60;91.90;;;;;;4954587;29;20102;-77
2021/07/17 02:05:26;;;;;;;14.10;4.70;;;18.60;91.90;;;;;;4955300;29;20102;-78
2021/07/17 02:07:53;;;;;;;9.85;4.25;;;18.50;91.90;;;;;;4954664;28;20019;-78
2021/07/17 02:10:22;;;;;;;14.48;4.72;;;18.50;91.90;;;;;;4955212;29;20066;-78
2021/07/17 02:13:01;;;;;;;11.23;4.68;;;18.50;92.00;;;;;;4954517;28;20026;-78
2021/07/17 02:15:31;;;;;;;13.50;4.88;;;18.50;92.00;;;;;;4937779;29;20054;-78
2021/07/17 02:17:58;;;;;;;12.63;4.70;;;18.50;92.00;;;;;;4954419;28;20038;-78
2021/07/17 02:20:24;;;;;;;11.05;4.20;;;18.50;91.90;;;;;;4937596;29;20028;-77
2021/07/17 02:22:50;;;;;;;11.20;4.55;;;18.50;91.90;;;;;;4954253;28;20019;-78
2021/07/17 02:25:17;;;;;;;16.95;4.85;;;18.50;92.00;;;;;;4937653;29;20099;-77
2021/07/17 02:27:43;;;;;;;11.13;4.50;;;18.50;92.00;;;;;;4936997;29;20059;-78
2021/07/17 02:30:09;;;;;;;10.77;4.75;;;18.50;92.00;;;;;;4937188;29;20064;-78
2021/07/17 02:32:35;;;;;;;12.88;4.25;;;18.50;92.00;;;;;;4937285;29;20017;-77
2021/07/17 02:35:02;;;;;;;14.75;4.47;;;18.40;92.00;;;;;;4954169;29;20559;-78
2021/07/17 02:37:27;;;;;;;14.40;4.90;;;18.40;92.10;;;;;;4937483;29;20028;-78
2021/07/17 02:39:53;;;;;;;9.35;4.28;;;18.40;92.10;;;;;;4953531;28;20372;-78
2021/07/17 02:42:19;;;;;;;10.68;4.20;;;18.40;92.10;;;;;;4954839;28;20115;-78
2021/07/17 02:44:46;;;;;;;10.77;4.78;;;18.40;92.10;;;;;;4936755;29;20027;-79
2021/07/17 02:47:12;;;;;;;11.07;4.43;;;18.40;92.20;;;;;;4954539;29;20019;-78
2021/07/17 02:49:37;;;;;;;12.10;4.70;;;18.30;92.20;;;;;;4937211;29;20118;-78
2021/07/17 02:52:03;;;;;;;10.20;4.30;;;18.30;92.20;;;;;;4953496;28;20031;-78
2021/07/17 02:54:29;;;;;;;11.25;4.65;;;18.30;92.20;;;;;;4954468;29;20026;-78
2021/07/17 02:56:55;;;;;;;10.43;4.30;;;18.30;92.20;;;;;;4936571;29;20062;-78
2021/07/17 02:59:20;;;;;;;9.77;4.50;;;18.30;92.20;;;;;;4937172;29;20026;-78
2021/07/17 03:01:46;;;;;;;9.60;3.95;;;18.30;92.20;;;;;;4936535;29;20031;-78
2021/07/17 03:04:11;;;;;;;10.05;4.68;;;18.30;92.20;;;;;;4937008;29;20443;-78
2021/07/17 03:06:37;;;;;;;11.95;4.65;;;18.30;92.30;;;;;;4954222;29;20094;-77
2021/07/17 03:09:04;;;;;;;12.13;4.28;;;18.20;92.30;;;;;;4953568;28;20405;-78
2021/07/17 03:11:32;;;;;;;9.10;3.60;;;18.20;92.40;;;;;;4936999;29;20023;-77
2021/07/17 03:13:58;;;;;;;16.27;4.55;;;18.10;92.50;;;;;;4953586;28;20012;-79
2021/07/17 03:16:24;;;;;;;11.10;4.70;;;18.10;92.60;;;;;;4936882;29;20027;-78
2021/07/17 03:18:50;;;;;;;13.32;4.53;;;18.00;92.60;;;;;;4936236;29;20023;-79
2021/07/17 03:21:16;;;;;;;13.50;4.25;;;18.00;92.70;;;;;;4953956;29;20038;-78
2021/07/17 03:23:41;;;;;;;11.00;4.18;;;18.00;92.70;;;;;;4936822;29;20110;-79
2021/07/17 03:26:07;;;;;;;11.60;4.57;;;17.90;92.70;;;;;;4953412;29;20024;-79
2021/07/17 03:28:33;;;;;;;11.15;4.40;;;17.90;92.80;;;;;;4953885;28;20348;-78
2021/07/17 03:30:58;;;;;;;9.05;4.78;;;18.00;92.80;;;;;;4936249;29;20019;-78
2021/07/17 03:33:24;;;;;;;12.43;4.55;;;17.90;92.80;;;;;;4936953;29;20019;-78
2021/07/17 03:35:50;;;;;;;10.90;4.22;;;17.90;92.80;;;;;;4936125;29;20025;-78
2021/07/17 03:38:15;;;;;;;13.57;4.32;;;17.90;92.80;;;;;;4936367;29;20448;-78
2021/07/17 03:40:41;;;;;;;12.32;4.18;;;17.80;92.90;;;;;;4936372;29;20027;-78
2021/07/17 03:43:06;;;;;;;14.60;3.85;;;17.80;93.20;;;;;;4954129;28;20544;-79
2021/07/17 03:45:32;;;;;;;17.08;4.25;;;17.80;93.00;;;;;;4940608;29;20138;-78
2021/07/17 03:47:58;;;;;;;10.07;3.88;;;17.80;93.00;;;;;;4957188;28;20026;-78
2021/07/17 03:50:24;;;;;;;13.77;4.43;;;17.80;93.10;;;;;;4958160;28;20048;-78
2021/07/17 03:52:49;;;;;;;10.68;3.88;;;17.70;93.20;;;;;;4939821;29;20095;-79
2021/07/17 03:55:15;;;;;;;10.20;4.28;;;17.80;93.20;;;;;;4957833;29;20023;-78
2021/07/17 03:57:41;;;;;;;9.93;4.25;;;17.60;93.20;;;;;;4940157;29;20114;-78
2021/07/17 04:00:07;;;;;;;11.07;4.20;;;17.60;93.20;;;;;;4939580;29;20110;-78
2021/07/17 04:02:41;;;;;;;13.90;4.38;;;17.60;93.20;;;;;;4957438;28;20062;-77
2021/07/17 04:05:11;;;;;;;10.85;4.40;;;17.60;93.20;;;;;;4939562;29;20019;-77
2021/07/17 04:07:37;;;;;;;10.23;4.13;;;17.60;93.20;;;;;;4940203;29;20103;-78
2021/07/17 04:10:05;;;;;;;14.20;3.83;;;17.60;93.30;;;;;;4939419;29;20207;-78
2021/07/17 04:12:31;;;;;;;11.98;3.45;;;17.60;93.30;;;;;;4940172;29;20015;-78
2021/07/17 04:14:57;;;;;;;11.13;3.88;;;17.60;93.30;;;;;;4939428;29;20442;-78
2021/07/17 04:17:23;;;;;;;9.07;4.00;;;17.60;93.30;;;;;;4957166;29;20428;-77
2021/07/17 04:19:49;;;;;;;13.73;4.05;;;17.60;93.40;;;;;;4956330;29;20132;-78
2021/07/17 04:22:15;;;;;;;8.48;3.95;;;17.50;93.40;;;;;;4956716;28;20397;-78
2021/07/17 04:24:40;;;;;;;11.10;4.10;;;17.50;93.40;;;;;;4956993;28;20019;-78
2021/07/17 04:27:06;;;;;;;16.70;4.85;;;17.50;93.40;;;;;;4956701;29;20024;-78
2021/07/17 04:29:32;;;;;;;12.65;3.97;;;17.40;93.40;;;;;;4956965;29;20498;-78
2021/07/17 04:31:57;;;;;;;13.15;4.07;;;17.50;93.50;;;;;;4939052;29;20182;-78
2021/07/17 04:34:23;;;;;;;9.25;3.63;;;17.40;93.50;;;;;;4956594;28;20050;-77
2021/07/17 04:36:50;;;;;;;11.20;3.90;;;17.40;93.50;;;;;;4956208;29;20110;-80
2021/07/17 04:39:16;;;;;;;11.35;3.97;;;17.40;93.50;;;;;;4939530;29;20521;-78
2021/07/17 04:41:42;;;;;;;8.68;3.67;;;17.40;93.50;;;;;;4956691;28;20023;-78
2021/07/17 04:44:08;;;;;;;9.77;3.60;;;17.40;93.50;;;;;;4938891;29;20023;-78
2021/07/17 04:46:33;;;;;;;8.23;3.20;;;17.40;93.50;;;;;;4939206;29;20455;-79
2021/07/17 04:48:59;;;;;;;10.13;4.57;;;17.40;93.50;;;;;;4955939;29;20418;-78
2021/07/17 04:51:25;;;;;;;11.70;4.13;;;17.40;93.50;;;;;;4939322;29;20030;-78
2021/07/17 04:53:51;;;;;;;9.20;4.25;;;17.40;93.50;;;;;;4938030;28;20019;-79
2021/07/17 04:56:16;;;;;;;10.38;3.72;;;17.40;93.60;;;;;;4938380;29;20019;-78
2021/07/17 04:58:42;;;;;;;10.40;3.65;;;17.30;93.60;;;;;;4939314;29;20023;-78
2021/07/17 05:01:07;;;;;;;11.85;4.07;;;17.30;93.60;;;;;;4938266;29;20026;-78
2021/07/17 05:03:35;;;;;;;9.15;3.78;;;17.30;93.60;;;;;;4956546;28;20031;-78
2021/07/17 05:06:01;;;;;;;11.15;4.22;;;17.30;93.60;;;;;;4938620;29;20110;-78
2021/07/17 05:08:27;;;;;;;10.27;3.85;;;17.30;93.60;;;;;;4939194;29;20043;-77
2021/07/17 05:10:53;;;;;;;9.95;3.45;;;17.30;93.60;;;;;;4938732;29;20070;-78
2021/07/17 05:13:18;;;;;;;11.45;3.42;;;17.30;93.60;;;;;;4956055;29;20019;-77
2021/07/17 05:15:44;;;;;;;11.13;4.35;;;17.40;93.60;;;;;;4955998;29;20023;-77
2021/07/17 05:18:13;;;;;;;11.10;3.42;;;17.40;93.60;;;;;;4938295;29;20027;-77
2021/07/17 05:20:40;;;;;;;11.38;3.35;;;17.40;93.60;;;;;;4938763;29;20031;-77
2021/07/17 05:23:06;;;;;;;13.70;3.80;;;17.40;93.60;;;;;;4938155;29;20599;-78
2021/07/17 05:25:31;;;;;;;10.48;4.00;;;17.40;93.60;;;;;;4938892;29;20035;-78
2021/07/17 05:27:57;;;;;;;9.13;4.00;;;17.40;93.60;;;;;;4938124;29;20019;-78
2021/07/17 05:30:23;;;;;;;9.05;3.17;;;17.50;93.90;;;;;;4956182;29;20023;-79
2021/07/17 05:32:49;;;;;;;10.65;3.47;;;17.50;93.90;;;;;;4938650;29;20019;-79
2021/07/17 05:35:16;;;;;;;13.82;3.67;;;17.40;93.60;;;;;;4955477;28;20034;-80
2021/07/17 05:37:42;;;;;;;9.52;3.67;;;17.40;93.70;;;;;;4938528;29;20026;-79
2021/07/17 05:40:08;;;;;;;8.90;3.65;;;17.50;93.70;;;;;;4955067;28;20371;-78
2021/07/17 05:42:34;;;;;;;10.15;3.80;;;17.50;93.70;;;;;;4955689;28;20102;-78
2021/07/17 05:45:00;;;;;;;11.07;3.40;;;17.50;93.70;;;;;;4937810;29;20427;-79
2021/07/17 05:47:26;;;;;;;7.72;3.33;;;17.50;93.70;;;;;;4938401;29;20029;-79
2021/07/17 05:49:52;;;;;;;14.27;3.55;;;17.60;93.80;;;;;;4938324;29;20023;-78
2021/07/17 05:52:18;;;;;;;11.13;3.40;;;17.60;93.70;;;;;;4937607;29;20034;-77
2021/07/17 05:54:43;;;;;;;12.43;3.75;;;17.60;93.70;;;;;;4938250;29;20079;-77
2021/07/17 05:57:10;;;;;;;10.75;3.63;;;17.60;93.70;;;;;;4937379;29;20460;-78
2021/07/17 05:59:36;;;;;;;11.40;3.33;;;17.70;93.70;;;;;;4938230;29;20449;-78
2021/07/17 06:02:05;;;;;;;8.40;3.28;;;17.70;93.70;;;;;;4937524;29;20105;-77
2021/07/17 06:04:30;;;;;;;7.50;3.03;;;17.70;93.60;;;;;;4955597;29;20027;-78
2021/07/17 06:06:56;;;;;;;8.38;3.05;;;17.80;93.60;;;;;;4937022;29;20071;-78
2021/07/17 06:09:22;;;;;;;12.60;3.63;;;17.80;93.60;;;;;;4937890;29;20028;-78
2021/07/17 06:11:48;;;;;;;7.00;3.40;;;17.90;93.60;;;;;;4955141;29;20102;-78
2021/07/17 06:14:14;;;;;;;7.07;2.78;;;17.90;93.60;;;;;;4937091;29;20038;-78
2021/07/17 06:16:39;;;;;;;7.43;3.08;;;17.90;93.60;;;;;;4954381;28;20023;-78
2021/07/17 06:19:05;;;;;;;8.18;3.03;;;17.90;93.60;;;;;;4945131;29;20051;-78
2021/07/17 06:21:31;;;;;;;8.35;3.00;;;18.00;93.60;;;;;;4919130;29;20030;-78
2021/07/17 06:23:57;;;;;;;7.38;2.63;;;18.00;93.50;;;;;;4935203;29;20031;-79
2021/07/17 06:26:23;;;;;;;7.80;3.03;;;18.10;93.50;;;;;;4935711;29;20179;-78
2021/07/17 06:28:49;;;;;;;6.70;2.95;;;18.20;93.50;;;;;;4918436;29;20437;-78
2021/07/17 06:31:16;;;;;;;7.72;2.65;;;18.20;93.40;;;;;;4926598;29;20031;-78
2021/07/17 06:33:42;;;;;;;7.57;2.85;;;18.30;93.40;;;;;;4937445;29;20374;-78
2021/07/17 06:36:08;;;;;;;7.15;2.50;;;18.30;93.40;;;;;;4952782;29;20439;-78
2021/07/17 06:38:34;;;;;;;7.18;2.88;;;18.40;93.30;;;;;;4954307;28;20074;-78
2021/07/17 06:41:01;;;;;;;5.95;2.85;;;18.40;93.30;;;;;;4936666;29;20071;-78
2021/07/17 06:43:27;;;;;;;8.50;3.35;;;18.50;93.30;;;;;;4954686;29;20019;-78
2021/07/17 06:45:53;;;;;;;7.35;2.75;;;18.50;93.20;;;;;;4928074;29;20371;-78
2021/07/17 06:48:18;;;;;;;5.78;2.80;;;18.50;93.20;;;;;;4950771;28;20023;-78
2021/07/17 06:50:44;;;;;;;7.10;3.00;;;18.60;93.20;;;;;;4937319;29;20030;-78
2021/07/17 06:53:10;;;;;;;8.40;2.92;;;18.60;93.10;;;;;;4936535;29;20026;-78
2021/07/17 06:55:36;;;;;;;9.40;3.00;;;18.60;93.10;;;;;;4937006;29;20019;-78
2021/07/17 06:58:01;;;;;;;6.50;2.80;;;18.60;93.10;;;;;;4936431;29;20019;-79
2021/07/17 07:00:27;;;;;;;7.68;2.85;;;18.60;93.10;;;;;;4933644;29;20106;-78
2021/07/17 07:02:53;;;;;;;7.80;3.17;;;18.60;93.10;;;;;;4935149;29;20033;-78
2021/07/17 07:05:18;;;;;;;8.20;3.40;;;18.60;93.10;;;;;;4917398;29;20432;-78
2021/07/17 07:07:44;;;;;;;7.90;3.03;;;18.60;93.00;;;;;;4920339;29;20031;-78
2021/07/17 07:10:10;;;;;;;11.43;3.58;;;18.60;93.00;;;;;;4925180;29;20114;-78
2021/07/17 07:12:38;;;;;;;8.05;2.55;;;18.60;93.00;;;;;;4927168;29;20364;-78
2021/07/17 07:15:08;;;;;;;7.32;2.78;;;18.70;93.10;;;;;;4926974;29;20047;-79
2021/07/17 07:17:34;;;;;;;7.20;2.57;;;18.70;93.10;;;;;;4925781;29;20502;-78
2021/07/17 07:20:00;;;;;;;5.65;2.88;;;18.60;93.00;;;;;;4943744;29;20027;-78
2021/07/17 07:22:26;;;;;;;6.55;2.80;;;18.70;93.00;;;;;;4944941;29;20099;-79
2021/07/17 07:24:52;;;;;;;7.03;2.97;;;18.70;93.10;;;;;;4925932;29;20472;-79
2021/07/17 07:27:17;;;;;;;6.90;3.00;;;18.70;93.10;;;;;;4942230;29;20070;-78
2021/07/17 07:29:43;;;;;;;4.28;2.42;;;18.80;93.00;;;;;;4944729;29;20027;-78
2021/07/17 07:32:09;;;;;;;7.55;2.38;;;18.80;92.90;;;;;;4925036;29;20015;-79
2021/07/17 07:34:34;;;;;;;6.00;2.90;;;18.80;92.90;;;;;;4919742;29;20090;-78
2021/07/17 07:37:00;;;;;;;5.80;2.63;;;18.90;92.90;;;;;;4917559;29;20047;-78
2021/07/17 07:39:25;;;;;;;6.57;2.45;;;18.90;92.90;;;;;;4916583;29;20181;-78
2021/07/17 07:41:51;;;;;;;5.55;2.67;;;18.90;92.90;;;;;;4934587;29;20023;-78
2021/07/17 07:44:17;;;;;;;6.57;2.50;;;18.90;92.90;;;;;;4916916;29;20448;-78
2021/07/17 07:46:42;;;;;;;9.77;3.30;;;19.00;92.80;;;;;;4917593;29;20110;-78
2021/07/17 07:49:08;;;;;;;4.70;2.53;;;19.00;92.70;;;;;;4916838;29;20102;-79
2021/07/17 07:51:34;;;;;;;9.75;3.25;;;19.10;92.70;;;;;;4934437;29;20062;-82
2021/07/17 07:54:00;;;;;;;7.00;2.90;;;19.10;92.70;;;;;;4934882;29;20023;-78
2021/07/17 07:56:26;;;;;;;7.93;2.75;;;19.10;92.60;;;;;;4916509;29;20453;-85
2021/07/17 07:58:51;;;;;;;7.45;2.75;;;19.20;92.50;;;;;;4917512;29;20023;-80
2021/07/17 08:01:17;;;;;;;6.47;2.30;;;19.20;92.50;;;;;;4949815;28;20031;-80
2021/07/17 08:03:43;;;;;;;4.57;2.22;;;19.20;92.40;;;;;;4953595;28;20110;-80
2021/07/17 08:06:08;;;;;;;7.07;2.60;;;19.30;92.40;;;;;;4935962;29;20023;-83
2021/07/17 08:08:34;;;;;;;5.65;2.42;;;19.40;92.30;;;;;;4936132;29;20020;-80
2021/07/17 08:11:01;;;;;;;5.28;2.55;;;19.40;92.20;;;;;;4935527;29;20034;-81
2021/07/17 08:13:26;;;;;;;4.97;2.35;;;19.50;92.10;;;;;;4934925;29;20019;-81
2021/07/17 08:15:53;;;;;;;4.57;1.88;;;19.50;92.10;;;;;;4929392;29;20297;-80
2021/07/17 08:18:19;;;;;;;6.63;2.30;;;19.50;92.00;;;;;;4916394;29;20020;-79
2021/07/17 08:20:45;;;;;;;3.65;1.90;;;19.60;91.90;;;;;;4917303;29;20345;-80
2021/07/17 08:23:11;;;;;;;6.68;2.22;;;19.60;91.90;;;;;;4916399;29;20031;-80
2021/07/17 08:25:37;;;;;;;4.45;2.25;;;19.60;91.80;;;;;;4917045;29;20119;-80
2021/07/17 08:28:03;;;;;;;2.90;1.73;;;19.70;91.70;;;;;;4917191;29;20020;-80
2021/07/17 08:30:29;;;;;;;5.57;1.88;;;19.70;91.60;;;;;;4921299;29;20424;-79
2021/07/17 08:32:56;;;;;;;5.30;2.17;;;19.70;91.40;;;;;;4928757;29;20370;-78
2021/07/17 08:35:22;;;;;;;6.20;1.92;;;19.80;91.20;;;;;;4919881;29;20086;-76
2021/07/17 08:37:48;;;;;;;5.10;1.70;;;19.80;91.00;;;;;;4920362;29;20032;-78
2021/07/17 08:40:14;;;;;;;6.18;1.88;;;19.80;91.00;;;;;;4918882;29;20048;-80
2021/07/17 08:42:44;;;;;;;6.18;2.10;;;19.90;91.00;;;;;;4920154;29;20046;-81
2021/07/17 08:45:11;;;;;;;3.92;1.95;;;19.90;91.10;;;;;;4935425;29;20020;-81
2021/07/17 08:47:40;;;;;;;2.67;1.75;;;19.90;90.80;;;;;;4938075;29;20041;-84
2021/07/17 08:50:09;;;;;;;2.53;1.10;;;20.00;90.70;;;;;;4919520;29;20118;-79
2021/07/17 08:52:36;;;;;;;4.55;1.52;;;20.10;90.60;;;;;;4920039;29;20024;-81
2021/07/17 08:55:07;;;;;;;5.75;2.17;;;20.10;90.40;;;;;;4919199;29;20016;-78
2021/07/17 08:57:38;;;;;;;5.60;1.73;;;20.20;90.30;;;;;;4920188;29;20515;-78
2021/07/17 09:00:17;;;;;;;5.68;1.48;;;20.20;90.20;;;;;;4920251;29;20405;-78
2021/07/17 09:02:46;;;;;;;3.58;1.02;;;20.30;90.10;;;;;;4919719;29;20214;-79
2021/07/17 09:05:15;;;;;;;7.68;1.27;;;20.30;90.00;;;;;;4919190;29;20059;-79
2021/07/17 09:07:41;;;;;;;5.00;2.10;;;20.30;89.90;;;;;;4920024;29;20024;-77
2021/07/17 09:10:26;;;;;;;3.40;1.50;;;20.30;89.80;;;;;;4919270;29;20054;-76
2021/07/17 09:13:16;;;;;;;2.72;1.20;;;20.40;89.60;;;;;;4919943;29;20016;-77
2021/07/17 09:15:50;;;;;;;2.22;1.33;;;20.40;89.50;;;;;;4937219;29;20055;-76
2021/07/17 09:18:26;;;;;;;3.90;1.20;;;20.50;89.30;;;;;;4936090;29;20417;-77
2021/07/17 09:21:05;;;;;;;6.80;1.30;;;20.60;89.20;;;;;;4936945;29;20313;-77
2021/07/17 09:23:37;;;;;;;2.78;1.30;;;20.60;88.40;;;;;;4936018;29;20020;-76
2021/07/17 09:26:21;;;;;;;3.58;1.13;;;20.70;88.50;;;;;;4936396;29;20103;-76
2021/07/17 09:28:54;;;;;;;4.50;1.23;;;20.70;88.40;;;;;;4919889;29;20098;-76
2021/07/17 09:31:19;;;;;;;2.03;1.00;;;20.80;88.10;;;;;;4903332;29;20122;-77
2021/07/17 09:33:49;;;;;;;3.47;1.30;;;20.80;87.90;;;;;;4919711;29;20106;-77
2021/07/17 09:36:17;;;;;;;3.67;1.17;;;20.80;88.00;;;;;;4918902;29;20483;-77
2021/07/17 09:38:50;;;;;;;2.65;1.17;;;20.80;88.00;;;;;;4919413;29;20020;-77
2021/07/17 09:41:18;;;;;;;3.85;1.20;;;20.80;88.00;;;;;;4917693;29;20126;-77
2021/07/17 09:43:44;;;;;;;2.00;0.90;;;20.80;87.90;;;;;;4936348;29;20023;-77
2021/07/17 09:46:20;;;;;;;2.38;1.10;;;20.90;87.70;;;;;;4936697;29;20020;-78
2021/07/17 09:48:48;;;;;;;4.82;0.93;;;21.00;87.20;;;;;;4936645;29;20094;-78
2021/07/17 09:51:25;;;;;;;4.43;1.00;;;21.10;87.00;;;;;;4918647;29;20042;-78
2021/07/17 09:53:53;;;;;;;4.15;1.13;;;21.10;86.80;;;;;;4936050;29;20424;-78
2021/07/17 09:56:22;;;;;;;1.88;0.95;;;21.20;86.80;;;;;;4918584;29;20013;-78
2021/07/17 09:58:48;;;;;;;3.45;0.98;;;21.10;86.70;;;;;;4918998;29;20461;-77
2021/07/17 10:01:32;;;;;;;2.72;1.05;;;21.20;86.60;;;;;;4918403;29;20031;-79
2021/07/17 10:03:59;;;;;;;3.20;1.40;;;21.30;86.30;;;;;;4919250;29;20023;-79
2021/07/17 10:06:35;;;;;;;2.92;1.10;;;21.40;85.70;;;;;;4918387;29;20024;-80
2021/07/17 10:09:07;;;;;;;2.25;0.80;;;21.50;85.30;;;;;;4936172;29;20023;-79
2021/07/17 10:11:34;;;;;;;1.75;1.10;;;21.50;85.20;;;;;;4918283;29;20087;-76
2021/07/17 10:14:15;;;;;;;2.15;0.68;;;21.50;85.20;;;;;;4935756;29;20024;-74
2021/07/17 10:16:41;;;;;;;;;;;21.60;85.00;;;;;;4919300;29;20028;-73
2021/07/17 10:19:07;;;;;;;3.38;1.50;;;21.60;85.10;;;;;;4918649;29;19903;-73
2021/07/17 10:21:35;;;;;;;3.20;0.90;;;21.60;84.90;;;;;;4935403;29;20449;-81
2021/07/17 10:24:02;;;;;;;2.05;0.88;;;21.70;85.00;;;;;;4918788;29;20019;-80
2021/07/17 10:26:28;;;;;;;2.30;0.80;;;21.80;84.60;;;;;;4918014;29;20020;-79
2021/07/17 10:28:59;;;;;;;1.30;0.80;;;22.00;84.10;;;;;;4935948;29;20027;-80
2021/07/17 10:31:25;;;;;;;2.25;0.82;;;22.10;83.80;;;;;;4918015;29;20122;-79
2021/07/17 10:33:50;;;;;;;2.85;1.13;;;22.10;83.70;;;;;;4918488;29;20111;-85
2021/07/17 10:36:17;;;;;;;2.20;1.10;;;22.10;83.70;;;;;;4918053;29;20026;-81
2021/07/17 10:38:45;;;;;;;4.18;1.05;;;22.10;83.80;;;;;;4918351;29;20024;-79
2021/07/17 10:41:16;;;;;;;2.42;0.82;;;22.20;83.70;;;;;;4918209;29;20241;-79
2021/07/17 10:43:52;;;;;;;3.50;1.30;;;22.20;83.50;;;;;;4935534;29;20023;-79
2021/07/17 10:46:31;;;;;;;3.70;1.42;;;22.20;83.40;;;;;;4917719;29;20475;-79
2021/07/17 10:48:59;;;;;;;2.63;0.90;;;22.20;83.10;;;;;;4918352;29;20541;-79
2021/07/17 10:51:27;;;;;;;3.20;1.27;;;22.30;82.80;;;;;;4917693;29;20325;-79
2021/07/17 10:53:54;;;;;;;1.48;0.90;;;22.40;82.00;;;;;;4917893;29;20023;-79
2021/07/17 10:56:30;;;;;;;3.28;0.90;;;22.50;81.60;;;;;;4917376;29;20024;-78
2021/07/17 10:59:01;;;;;;;1.92;0.82;;;22.60;81.40;;;;;;4918034;29;20020;-79
2021/07/17 11:01:27;;;;;;;;;;;22.60;81.20;;;;;;4917745;29;20062;-79
2021/07/17 11:03:53;;;;;;;2.90;0.93;;;22.70;81.20;;;;;;4935212;29;19910;-79
2021/07/17 11:06:31;;;;;;;1.58;0.70;;;22.80;80.70;;;;;;4934121;29;20043;-79
2021/07/17 11:09:23;;;;;;;2.22;1.00;;;22.90;80.50;;;;;;4917795;29;20131;-78
2021/07/17 11:11:49;;;;;;;1.17;0.57;;;22.90;80.30;;;;;;4918003;29;20038;-80
2021/07/17 11:14:14;;;;;;;3.05;0.80;;;23.10;79.90;;;;;;4934983;29;20024;-86
2021/07/17 11:16:49;;;;;;;1.55;0.80;;;23.20;79.40;;;;;;4917365;29;20075;-79
2021/07/17 11:19:33;;;;;;;3.17;1.08;;;23.30;78.90;;;;;;4934939;29;20024;-78
2021/07/17 11:22:10;;;;;;;2.80;1.30;;;23.40;78.60;;;;;;4934891;29;20031;-79
2021/07/17 11:24:36;;;;;;;2.17;0.90;;;23.50;78.30;;;;;;4934184;29;20024;-79
2021/07/17 11:27:20;;;;;;;2.45;0.98;;;23.50;78.00;;;;;;4934461;29;20528;-79
2021/07/17 11:29:48;;;;;;;2.95;1.10;;;23.70;77.60;;;;;;4935139;29;20086;-78
2021/07/17 11:32:15;;;;;;;2.03;0.93;;;23.80;77.10;;;;;;4934381;29;20349;-78
2021/07/17 11:34:45;;;;;;;2.55;1.00;;;23.90;76.80;;;;;;4934102;29;20027;-79
2021/07/17 11:37:13;;;;;;;1.58;0.75;;;24.00;76.60;;;;;;4934508;29;20024;-79
2021/07/17 11:39:42;;;;;;;1.88;0.82;;;24.00;76.20;;;;;;4916615;29;20107;-79
2021/07/17 11:42:10;;;;;;;2.53;0.98;;;24.10;76.10;;;;;;4917079;29;20087;-80
2021/07/17 11:44:43;;;;;;;2.42;1.00;;;24.20;75.80;;;;;;4933945;29;20031;-79
2021/07/17 11:47:20;;;;;;;1.38;0.80;;;24.20;75.50;;;;;;4934376;29;20357;-79
2021/07/17 11:49:49;;;;;;;1.08;0.80;;;24.40;75.40;;;;;;4918277;29;20105;-81
2021/07/17 11:52:20;;;;;;;1.77;0.70;;;24.40;75.40;;;;;;4918393;29;20036;-82
2021/07/17 11:55:00;;;;;;;2.40;0.90;;;24.40;75.50;;;;;;4917755;29;20023;-81
2021/07/17 11:57:31;;;;;;;1.88;0.90;;;24.50;75.40;;;;;;4934108;29;20020;-81
2021/07/17 12:00:09;;;;;;;4.15;1.15;;;24.50;75.30;;;;;;4917455;29;20336;-79
2021/07/17 12:02:36;;;;;;;2.15;0.95;;;24.50;75.30;;;;;;4916835;29;20028;-79
2021/07/17 12:05:13;;;;;;;2.38;1.10;;;24.60;74.60;;;;;;4919607;29;20027;-80
2021/07/17 12:07:41;;;;;;;2.33;0.93;;;24.60;74.40;;;;;;4937705;29;20016;-81
2021/07/17 12:10:17;;;;;;;2.90;1.00;;;24.70;74.50;;;;;;4921434;29;20016;-80
2021/07/17 12:12:44;;;;;;;3.50;1.00;;;24.70;74.50;;;;;;4920369;29;20031;-80
2021/07/17 12:15:11;;;;;;;3.33;1.10;;;24.80;74.20;;;;;;4921219;29;20016;-81
2021/07/17 12:17:49;;;;;;;2.50;0.90;;;24.90;74.00;;;;;;4922700;29;20091;-80
2021/07/17 12:20:24;;;;;;;2.08;0.98;;;24.90;73.90;;;;;;4938488;29;20030;-80
2021/07/17 12:22:59;;;;;;;2.25;0.90;;;24.90;73.80;;;;;;4920846;29;20020;-80
2021/07/17 12:25:33;;;;;;;2.88;0.82;;;25.00;73.60;;;;;;4937512;29;20023;-79
2021/07/17 12:28:11;;;;;;;2.10;0.90;;;25.10;73.20;;;;;;4937999;29;20103;-80
2021/07/17 12:30:41;;;;;;;2.45;0.80;;;25.20;73.30;;;;;;4937398;29;20054;-79
2021/07/17 12:33:23;;;;;;;2.30;0.80;;;25.30;73.20;;;;;;4920951;29;20028;-79
2021/07/17 12:36:08;;;;;;;1.73;0.93;;;25.40;72.40;;;;;;4937670;29;20026;-82
2021/07/17 12:38:56;;;;;;;2.08;0.80;;;25.50;72.40;;;;;;4937165;29;20024;-80
2021/07/17 12:41:24;;;;;;;3.92;1.10;;;25.50;72.10;;;;;;4898717;29;20032;-80
2021/07/17 12:43:52;;;;;;;2.38;0.85;;;25.60;71.80;;;;;;4899759;29;20111;-80
2021/07/17 12:46:37;;;;;;;2.30;1.05;;;25.80;71.40;;;;;;4898664;29;20020;-80